createdAt,value
2019-01-24T00:01:59.720Z,27.80
2019-01-24T00:04:30.771Z,29.27
2019-01-24T00:07:01.688Z,31.82
2019-01-24T00:09:32.666Z,31.55
2019-01-24T00:12:03.667Z,28.30
2019-01-24T00:14:37.684Z,31.15
2019-01-24T00:17:08.677Z,36.08
2019-01-24T00:19:39.746Z,34.43
2019-01-24T00:22:10.709Z,30.23
2019-01-24T00:24:41.706Z,29.72
2019-01-24T00:27:12.829Z,29.80
2019-01-24T00:29:43.872Z,30.52
2019-01-24T00:32:14.826Z,29.48
2019-01-24T00:34:45.992Z,29.45
2019-01-24T00:37:16.958Z,27.30
2019-01-24T00:39:47.926Z,26.93
2019-01-24T00:42:18.946Z,28.27
2019-01-24T00:44:50.007Z,26.82
2019-01-24T00:47:20.951Z,27.17
2019-01-24T00:49:52.040Z,26.55
2019-01-24T00:52:23.040Z,25.05
2019-01-24T00:54:54.078Z,26.00
2019-01-24T00:57:25.159Z,26.15
2019-01-24T00:59:56.278Z,26.75
2019-01-24T01:02:27.327Z,24.35
2019-01-24T01:04:58.337Z,26.05
2019-01-24T01:07:29.140Z,24.10
2019-01-24T01:10:00.165Z,24.72
2019-01-24T01:12:31.135Z,27.37
2019-01-24T01:15:02.204Z,27.87
2019-01-24T01:17:33.147Z,26.15
2019-01-24T01:20:05.191Z,24.55
2019-01-24T01:22:36.252Z,27.13
2019-01-24T01:25:09.033Z,25.55
2019-01-24T01:27:41.033Z,24.50
2019-01-24T01:30:20.741Z,25.25
2019-01-24T01:32:54.758Z,25.57
2019-01-24T01:35:25.850Z,25.00
2019-01-24T01:37:56.668Z,25.02
2019-01-24T01:40:27.658Z,25.45
2019-01-24T01:42:58.470Z,25.68
2019-01-24T01:45:28.915Z,25.90
2019-01-24T01:47:59.852Z,24.10
2019-01-24T01:50:30.783Z,24.37
2019-01-24T01:53:01.773Z,22.98
2019-01-24T01:55:32.719Z,22.80
2019-01-24T01:58:03.796Z,24.67
2019-01-24T02:00:36.103Z,23.80
2019-01-24T02:03:08.491Z,24.00
2019-01-24T02:05:39.385Z,26.68
2019-01-24T02:08:10.526Z,27.17
2019-01-24T02:10:41.371Z,31.37
2019-01-24T02:13:12.408Z,27.87
2019-01-24T02:15:43.326Z,28.12
2019-01-24T02:18:14.628Z,26.35
2019-01-24T02:20:45.824Z,25.27
2019-01-24T02:23:15.968Z,26.30
2019-01-24T02:25:46.985Z,27.37
2019-01-24T02:28:17.907Z,29.40
2019-01-24T02:30:48.830Z,29.75
2019-01-24T02:33:19.837Z,29.55
2019-01-24T02:35:50.817Z,28.92
2019-01-24T02:38:21.805Z,28.50
2019-01-24T02:40:52.725Z,31.60
2019-01-24T02:43:23.559Z,29.07
2019-01-24T02:45:54.465Z,27.40
2019-01-24T02:48:25.360Z,27.65
2019-01-24T02:50:56.313Z,27.20
2019-01-24T02:53:27.231Z,28.52
2019-01-24T02:55:58.185Z,26.70
2019-01-24T02:58:29.098Z,28.50
2019-01-24T03:01:00.015Z,25.55
2019-01-24T03:03:30.844Z,26.50
2019-01-24T03:06:01.776Z,27.77
2019-01-24T03:08:32.827Z,27.75
2019-01-24T03:11:03.837Z,25.23
2019-01-24T03:13:35.714Z,30.25
2019-01-24T03:16:06.711Z,25.95
2019-01-24T03:18:37.748Z,25.82
2019-01-24T03:21:08.746Z,26.77
2019-01-24T03:23:39.624Z,28.00
2019-01-24T03:26:11.705Z,27.40
2019-01-24T03:28:42.740Z,25.20
2019-01-24T03:33:43.641Z,23.85
2019-01-24T03:36:14.564Z,24.57
2019-01-24T03:38:46.607Z,25.10
2019-01-24T03:41:17.423Z,24.95
2019-01-24T03:43:48.356Z,23.25
2019-01-24T03:46:19.147Z,23.83
2019-01-24T03:48:49.945Z,23.73
2019-01-24T03:51:21.006Z,22.13
2019-01-24T03:53:52.516Z,23.47
2019-01-24T03:56:23.463Z,24.07
2019-01-24T03:58:55.140Z,23.05
2019-01-24T04:01:26.228Z,24.15
2019-01-24T04:03:57.505Z,24.23
2019-01-24T04:06:29.003Z,25.57
2019-01-24T04:09:00.744Z,22.90
2019-01-24T04:11:33.246Z,24.60
2019-01-24T04:14:04.253Z,25.30
2019-01-24T04:16:35.124Z,22.40
2019-01-24T04:19:06.479Z,24.77
2019-01-24T04:21:37.375Z,25.23
2019-01-24T04:24:08.410Z,22.58
2019-01-24T04:26:39.291Z,24.87
2019-01-24T04:32:11.283Z,23.35
2019-01-24T04:34:42.165Z,23.92
2019-01-24T04:37:12.973Z,23.00
2019-01-24T04:39:43.944Z,23.07
2019-01-24T04:47:37.089Z,34.08
2019-01-24T04:50:16.096Z,34.25
2019-01-24T05:00:41.159Z,27.85
2019-01-24T05:03:12.067Z,26.00
2019-01-24T05:05:42.976Z,27.02
2019-01-24T05:08:13.936Z,26.62
2019-01-24T05:10:44.799Z,26.85
2019-01-24T05:13:15.717Z,25.90
2019-01-24T05:15:46.837Z,25.23
2019-01-24T05:18:18.390Z,26.17
2019-01-24T05:20:49.427Z,23.32
2019-01-24T05:23:20.317Z,24.37
2019-01-24T05:25:51.197Z,23.92
2019-01-24T05:28:22.120Z,26.62
2019-01-24T05:30:52.957Z,27.60
2019-01-24T05:33:23.959Z,24.82
2019-01-24T05:35:54.836Z,28.77
2019-01-24T05:38:25.807Z,25.15
2019-01-24T05:40:56.751Z,24.92
2019-01-24T05:43:27.586Z,26.57
2019-01-24T05:45:58.515Z,24.43
2019-01-24T05:48:29.413Z,26.35
2019-01-24T05:51:00.364Z,23.62
2019-01-24T05:53:31.309Z,24.85
2019-01-24T05:56:02.373Z,23.27
2019-01-24T05:58:33.398Z,23.27
2019-01-24T06:01:06.283Z,24.63
2019-01-24T06:03:37.338Z,26.85
2019-01-24T06:06:08.311Z,28.55
2019-01-24T06:08:39.528Z,25.02
2019-01-24T06:11:10.704Z,25.43
2019-01-24T06:13:41.625Z,24.25
2019-01-24T06:16:12.705Z,27.40
2019-01-24T06:18:43.808Z,34.55
2019-01-24T06:21:14.586Z,30.30
2019-01-24T06:23:45.592Z,31.12
2019-01-24T06:26:16.976Z,23.77
2019-01-24T06:28:48.186Z,27.40
2019-01-24T06:31:19.500Z,36.53
2019-01-24T06:33:50.653Z,33.83
2019-01-24T06:36:21.776Z,29.55
2019-01-24T06:38:53.038Z,34.08
2019-01-24T06:41:25.166Z,29.72
2019-01-24T06:43:57.004Z,28.17
2019-01-24T06:46:28.314Z,34.75
2019-01-24T06:48:59.649Z,39.58
2019-01-24T06:51:30.487Z,30.88
2019-01-24T06:54:00.725Z,31.02
2019-01-24T06:56:32.011Z,44.58
2019-01-24T06:59:03.323Z,63.20
2019-01-24T07:01:35.025Z,66.92
2019-01-24T07:04:06.403Z,61.65
2019-01-24T07:06:37.835Z,45.67
2019-01-24T07:09:10.027Z,51.70
2019-01-24T07:11:41.176Z,104.15
2019-01-24T07:14:12.814Z,60.05
2019-01-24T07:16:44.071Z,53.08
2019-01-24T07:19:15.206Z,44.27
2019-01-24T07:21:46.271Z,49.23
2019-01-24T07:24:17.489Z,39.90
2019-01-24T07:26:48.964Z,29.48
2019-01-24T07:29:20.571Z,33.48
2019-01-24T07:31:51.884Z,27.90
2019-01-24T07:34:23.050Z,22.40
2019-01-24T07:36:53.970Z,25.52
2019-01-24T07:39:25.147Z,22.10
2019-01-24T07:41:56.191Z,22.73
2019-01-24T07:44:27.287Z,22.77
2019-01-24T07:46:58.571Z,22.70
2019-01-24T07:49:32.190Z,24.95
2019-01-24T07:52:03.402Z,25.77
2019-01-24T07:54:34.760Z,23.75
2019-01-24T07:57:06.279Z,24.77
2019-01-24T07:59:37.430Z,26.12
2019-01-24T08:02:08.473Z,26.77
2019-01-24T08:04:39.798Z,29.07
2019-01-24T08:07:10.850Z,31.82
2019-01-24T08:09:42.061Z,28.60
2019-01-24T08:12:13.321Z,27.02
2019-01-24T08:14:44.212Z,28.23
2019-01-24T08:17:15.373Z,31.48
2019-01-24T08:19:46.462Z,31.45
2019-01-24T08:22:16.419Z,30.62
2019-01-24T08:24:47.346Z,27.35
2019-01-24T08:27:18.506Z,25.30
2019-01-24T08:29:49.693Z,22.40
2019-01-24T08:32:21.733Z,27.10
2019-01-24T08:34:52.851Z,23.80
2019-01-24T08:37:24.094Z,24.67
2019-01-24T08:39:55.157Z,21.63
2019-01-24T08:42:26.294Z,21.40
2019-01-24T08:44:57.579Z,33.40
2019-01-24T08:47:28.842Z,26.37
2019-01-24T08:49:59.838Z,27.53
2019-01-24T08:52:31.435Z,19.87
2019-01-24T08:55:02.605Z,20.70
2019-01-24T08:57:33.748Z,16.67
2019-01-24T09:00:06.085Z,16.00
2019-01-24T09:02:38.182Z,16.77
2019-01-24T09:05:10.443Z,17.77
2019-01-24T09:07:41.650Z,17.60
2019-01-24T09:10:15.354Z,15.37
2019-01-24T09:12:46.420Z,15.60
2019-01-24T09:15:17.804Z,16.13
2019-01-24T09:17:49.058Z,15.13
2019-01-24T09:20:20.330Z,17.10
2019-01-24T09:22:55.425Z,15.80
2019-01-24T09:25:24.936Z,16.23
2019-01-24T09:27:56.343Z,17.27
2019-01-24T09:30:28.155Z,18.53
2019-01-24T09:32:59.385Z,19.20
2019-01-24T09:35:30.690Z,23.37
2019-01-24T09:38:01.865Z,22.77
2019-01-24T09:40:33.508Z,21.90
2019-01-24T09:43:04.996Z,17.40
2019-01-24T09:45:36.187Z,17.77
2019-01-24T09:48:09.203Z,18.43
2019-01-24T09:50:40.570Z,18.23
2019-01-24T09:53:11.890Z,18.60
2019-01-24T09:55:43.040Z,19.67
2019-01-24T09:58:14.352Z,20.90
2019-01-24T10:00:45.656Z,22.70
2019-01-24T10:03:17.061Z,22.17
2019-01-24T10:05:48.761Z,21.93
2019-01-24T10:08:20.078Z,23.60
2019-01-24T10:10:51.561Z,22.67
2019-01-24T10:13:24.070Z,23.10
2019-01-24T10:15:56.300Z,21.27
2019-01-24T10:18:27.471Z,22.80
2019-01-24T10:20:55.565Z,22.30
2019-01-24T10:23:26.780Z,23.43
2019-01-24T10:25:58.658Z,22.27
2019-01-24T10:28:30.041Z,20.53
2019-01-24T10:31:01.415Z,22.90
2019-01-24T10:33:34.927Z,23.93
2019-01-24T10:36:06.117Z,23.80
2019-01-24T10:38:40.360Z,24.23
2019-01-24T10:41:11.921Z,25.77
2019-01-24T10:43:43.539Z,25.60
2019-01-24T10:46:14.726Z,25.17
2019-01-24T10:48:45.960Z,26.43
2019-01-24T10:51:17.159Z,25.23
2019-01-24T10:53:48.549Z,26.97
2019-01-24T10:56:19.916Z,26.53
2019-01-24T10:58:50.781Z,28.00
2019-01-24T11:01:27.281Z,28.13
2019-01-24T11:03:58.690Z,29.43
2019-01-24T11:06:30.071Z,29.17
2019-01-24T11:09:00.903Z,29.50
2019-01-24T11:11:32.386Z,31.60
2019-01-24T11:14:04.973Z,30.10
2019-01-24T11:16:36.314Z,30.30
2019-01-24T11:19:07.679Z,30.77
2019-01-24T11:21:38.730Z,30.53
2019-01-24T11:24:13.983Z,29.97
2019-01-24T11:26:45.246Z,30.73
2019-01-24T11:29:16.415Z,30.23
2019-01-24T11:31:49.730Z,30.77
2019-01-24T11:34:22.359Z,31.83
2019-01-24T11:36:57.210Z,32.13
2019-01-24T11:39:28.605Z,30.07
2019-01-24T11:42:00.066Z,30.70
2019-01-24T11:44:31.606Z,30.10
2019-01-24T11:47:02.846Z,31.13
2019-01-24T11:49:34.197Z,31.70
2019-01-24T11:52:06.920Z,34.60
2019-01-24T11:54:38.191Z,34.67
2019-01-24T11:57:09.683Z,33.73
2019-01-24T11:59:41.210Z,33.27
2019-01-24T12:02:12.867Z,33.13
2019-01-24T12:04:44.472Z,31.80
2019-01-24T12:07:17.183Z,33.23
2019-01-24T12:09:49.445Z,35.37
2019-01-24T12:12:20.922Z,36.00
2019-01-24T12:14:52.644Z,36.63
2019-01-24T12:17:24.824Z,38.40
2019-01-24T12:19:56.203Z,37.60
2019-01-24T12:22:27.653Z,37.30
2019-01-24T12:24:58.837Z,38.37
2019-01-24T12:27:32.563Z,38.20
2019-01-24T12:30:03.892Z,36.97
2019-01-24T12:32:35.408Z,35.50
2019-01-24T12:35:07.894Z,35.87
2019-01-24T12:37:39.859Z,35.27
2019-01-24T12:40:11.231Z,37.40
2019-01-24T12:42:42.827Z,39.07
2019-01-24T12:45:20.856Z,40.00
2019-01-24T12:47:52.920Z,37.63
2019-01-24T12:50:24.911Z,34.90
2019-01-24T12:52:58.176Z,35.43
2019-01-24T12:55:29.928Z,34.77
2019-01-24T12:58:01.191Z,36.00
2019-01-24T13:00:34.907Z,35.17
2019-01-24T13:03:07.617Z,36.37
2019-01-24T13:05:38.993Z,34.67
2019-01-24T13:08:10.580Z,35.60
2019-01-24T13:10:41.733Z,34.20
2019-01-24T13:13:13.266Z,34.70
2019-01-24T13:15:44.827Z,32.57
2019-01-24T13:18:16.643Z,31.83
2019-01-24T13:20:51.471Z,31.40
2019-01-24T13:23:23.719Z,32.17
2019-01-24T13:25:57.357Z,31.70
2019-01-24T13:28:29.339Z,30.03
2019-01-24T13:31:00.891Z,31.93
2019-01-24T13:33:32.212Z,28.80
2019-01-24T13:36:03.649Z,28.77
2019-01-24T13:38:35.352Z,29.63
2019-01-24T13:41:06.890Z,27.48
2019-01-24T13:43:39.053Z,29.60
2019-01-24T13:46:10.373Z,30.68
2019-01-24T13:48:41.807Z,29.63
2019-01-24T13:51:13.256Z,31.10
2019-01-24T13:53:44.365Z,29.85
2019-01-24T13:56:15.961Z,29.70
2019-01-24T13:58:47.848Z,27.87
2019-01-24T14:01:19.941Z,30.30
2019-01-24T14:04:20.961Z,24.95
2019-01-24T14:06:52.589Z,23.07
2019-01-24T14:09:31.009Z,24.12
2019-01-24T14:12:02.640Z,22.25
2019-01-24T14:14:34.716Z,23.45
2019-01-24T14:17:06.457Z,20.15
2019-01-24T14:19:38.922Z,19.62
2019-01-24T14:22:10.108Z,20.37
2019-01-24T14:24:41.608Z,17.52
2019-01-24T14:27:13.113Z,18.92
2019-01-24T14:29:44.842Z,13.53
2019-01-24T14:32:16.598Z,18.35
2019-01-24T14:34:47.851Z,16.10
2019-01-24T14:37:19.015Z,18.12
2019-01-24T14:39:50.688Z,17.82
2019-01-24T14:42:21.953Z,19.92
2019-01-24T14:44:53.354Z,20.35
2019-01-24T14:47:24.853Z,17.77
2019-01-24T14:49:56.505Z,15.05
2019-01-24T14:52:27.579Z,16.32
2019-01-24T14:54:58.573Z,15.83
2019-01-24T14:57:30.011Z,14.15
2019-01-24T15:00:01.174Z,18.77
2019-01-24T15:02:32.949Z,18.12
2019-01-24T15:05:04.778Z,18.52
2019-01-24T15:07:36.092Z,17.82
2019-01-24T15:10:08.199Z,18.57
2019-01-24T15:12:39.645Z,21.62
2019-01-24T15:15:11.352Z,24.25
2019-01-24T15:17:42.851Z,18.45
2019-01-24T15:20:14.579Z,20.15
2019-01-24T15:22:46.166Z,25.17
2019-01-24T15:25:17.442Z,16.27
2019-01-24T15:27:48.920Z,19.65
2019-01-24T15:30:22.238Z,20.75
2019-01-24T15:32:53.979Z,19.07
2019-01-24T15:35:26.380Z,18.50
2019-01-24T15:37:58.163Z,18.92
2019-01-24T15:40:31.547Z,18.17
2019-01-24T15:43:03.353Z,18.23
2019-01-24T15:45:36.143Z,16.62
2019-01-24T15:48:08.466Z,18.15
2019-01-24T15:50:39.800Z,17.42
2019-01-24T15:53:11.074Z,18.17
2019-01-24T15:55:42.381Z,20.52
2019-01-24T15:58:13.424Z,17.90
2019-01-24T16:00:44.484Z,17.60
2019-01-24T16:03:15.427Z,17.92
2019-01-24T16:05:46.341Z,14.23
2019-01-24T16:08:17.185Z,21.90
2019-01-24T16:10:47.999Z,17.25
2019-01-24T16:13:18.791Z,21.12
2019-01-24T16:15:49.715Z,20.30
2019-01-24T16:18:20.590Z,24.00
2019-01-24T16:20:51.418Z,20.60
2019-01-24T16:23:22.385Z,25.75
2019-01-24T16:25:53.199Z,29.20
2019-01-24T16:28:24.759Z,22.27
2019-01-24T16:30:56.681Z,22.27
2019-01-24T16:33:27.514Z,25.43
2019-01-24T16:35:58.367Z,35.98
2019-01-24T16:38:30.088Z,31.00
2019-01-24T16:41:00.846Z,23.55
2019-01-24T16:43:31.524Z,29.75
2019-01-24T16:46:02.310Z,29.85
2019-01-24T16:48:33.118Z,30.95
2019-01-24T16:51:04.024Z,31.30
2019-01-24T16:53:34.786Z,32.08
2019-01-24T16:56:05.843Z,34.30
2019-01-24T16:58:36.796Z,33.25
2019-01-24T17:01:17.425Z,30.52
2019-01-24T17:03:48.196Z,26.60
2019-01-24T17:06:20.058Z,25.52
2019-01-24T17:08:52.833Z,27.77
2019-01-24T17:11:23.706Z,27.82
2019-01-24T17:13:54.446Z,25.45
2019-01-24T17:16:25.682Z,24.23
2019-01-24T17:18:56.781Z,24.82
2019-01-24T17:21:28.598Z,27.00
2019-01-24T17:23:59.897Z,29.72
2019-01-24T17:26:31.503Z,31.07
2019-01-24T17:29:03.256Z,24.65
2019-01-24T17:31:34.930Z,28.50
2019-01-24T17:34:09.047Z,31.90
2019-01-24T17:36:40.582Z,33.53
2019-01-24T17:39:13.184Z,29.65
2019-01-24T17:41:44.424Z,27.15
2019-01-24T17:44:15.794Z,28.90
2019-01-24T17:46:47.213Z,33.05
2019-01-24T17:49:18.464Z,34.90
2019-01-24T17:51:49.663Z,26.05
2019-01-24T17:54:21.048Z,26.87
2019-01-24T17:56:53.515Z,29.20
2019-01-24T17:59:25.231Z,27.13
2019-01-24T18:01:56.749Z,31.10
2019-01-24T18:04:28.032Z,45.48
2019-01-24T18:06:59.310Z,43.05
2019-01-24T18:09:30.514Z,37.98
2019-01-24T18:12:01.698Z,36.80
2019-01-24T18:14:33.039Z,32.25
2019-01-24T18:17:04.471Z,34.35
2019-01-24T18:19:35.309Z,34.63
2019-01-24T18:22:06.977Z,36.65
2019-01-24T18:24:38.058Z,34.73
2019-01-24T18:27:09.274Z,35.65
2019-01-24T18:29:40.203Z,40.05
2019-01-24T18:32:11.519Z,33.13
2019-01-24T18:34:42.692Z,31.97
2019-01-24T18:37:14.062Z,28.90
2019-01-24T18:39:46.270Z,33.48
2019-01-24T18:42:17.925Z,30.55
2019-01-24T18:44:48.926Z,30.40
2019-01-24T18:47:20.722Z,34.60
2019-01-24T18:49:52.145Z,36.13
2019-01-24T18:52:23.463Z,38.08
2019-01-24T18:54:56.385Z,37.17
2019-01-24T18:57:27.529Z,37.05
2019-01-24T18:59:58.914Z,47.93
2019-01-24T19:02:29.919Z,47.75
2019-01-24T19:05:01.120Z,40.70
2019-01-24T19:07:32.723Z,35.65
2019-01-24T19:10:06.138Z,36.13
2019-01-24T19:12:37.463Z,37.25
2019-01-24T19:15:12.364Z,36.00
2019-01-24T19:17:45.412Z,35.55
2019-01-24T19:20:16.968Z,39.27
2019-01-24T19:22:48.305Z,42.08
2019-01-24T19:25:20.344Z,36.45
2019-01-24T19:27:52.868Z,33.05
2019-01-24T19:30:28.924Z,35.13
2019-01-24T19:33:00.608Z,34.85
2019-01-24T19:35:32.167Z,33.25
2019-01-24T19:38:03.853Z,34.95
2019-01-24T19:40:36.646Z,36.65
2019-01-24T19:43:08.098Z,33.95
2019-01-24T19:45:39.465Z,33.23
2019-01-24T19:48:11.058Z,37.83
2019-01-24T19:50:42.484Z,35.73
2019-01-24T19:53:15.278Z,34.67
2019-01-24T19:55:46.334Z,30.65
2019-01-24T19:58:17.667Z,32.42
2019-01-24T20:00:48.882Z,30.77
2019-01-24T20:03:20.145Z,31.37
2019-01-24T20:05:51.404Z,29.63
2019-01-24T20:08:22.666Z,29.95
2019-01-24T20:10:53.911Z,32.45
2019-01-24T20:13:25.495Z,37.90
2019-01-24T20:15:59.246Z,39.00
2019-01-24T20:18:30.359Z,37.35
2019-01-24T20:21:01.575Z,40.45
2019-01-24T20:23:32.819Z,38.00
2019-01-24T20:26:03.842Z,34.53
2019-01-24T20:28:35.375Z,37.30
2019-01-24T20:31:06.495Z,36.80
2019-01-24T20:33:37.847Z,36.85
2019-01-24T20:36:08.923Z,35.63
2019-01-24T20:38:40.649Z,36.63
2019-01-24T20:41:12.242Z,37.67
2019-01-24T20:43:43.318Z,68.15
2019-01-24T20:46:17.562Z,44.65
2019-01-24T20:48:48.776Z,40.90
2019-01-24T20:51:20.045Z,35.28
2019-01-24T20:53:51.288Z,32.40
2019-01-24T20:56:22.383Z,27.22
2019-01-24T20:58:54.623Z,25.48
2019-01-24T21:01:25.882Z,22.60
2019-01-24T21:03:57.107Z,23.77
2019-01-24T21:06:28.704Z,25.77
2019-01-24T21:09:00.063Z,25.48
2019-01-24T21:11:31.380Z,23.98
2019-01-24T21:14:02.855Z,22.52
2019-01-24T21:16:34.419Z,25.05
2019-01-24T21:19:06.168Z,25.25
2019-01-24T21:21:37.290Z,24.02
2019-01-24T21:24:08.679Z,22.75
2019-01-24T21:26:40.698Z,21.93
2019-01-24T21:29:11.859Z,21.07
2019-01-24T21:31:42.888Z,20.68
2019-01-24T21:34:14.298Z,20.45
2019-01-24T21:36:45.333Z,20.10
2019-01-24T21:39:22.144Z,19.17
2019-01-24T21:41:50.072Z,21.27
2019-01-24T21:44:21.249Z,22.50
2019-01-24T21:46:52.576Z,21.07
2019-01-24T21:49:23.510Z,20.23
2019-01-24T21:51:55.215Z,19.42
2019-01-24T21:54:26.330Z,20.23
2019-01-24T21:56:57.526Z,20.27
2019-01-24T21:59:28.729Z,21.23
2019-01-24T22:01:59.972Z,24.70
2019-01-24T22:04:31.207Z,28.23
2019-01-24T22:07:02.724Z,26.95
2019-01-24T22:09:33.837Z,38.05
2019-01-24T22:12:05.683Z,34.83
2019-01-24T22:14:36.846Z,32.48
2019-01-24T22:17:07.732Z,30.52
2019-01-24T22:19:38.933Z,26.85
2019-01-24T22:22:09.886Z,33.45
2019-01-24T22:24:41.165Z,29.12
2019-01-24T22:27:12.468Z,40.55
2019-01-24T22:29:43.825Z,41.80
2019-01-24T22:32:14.943Z,37.38
2019-01-24T22:34:45.959Z,34.03
2019-01-24T22:37:17.223Z,37.93
2019-01-24T22:39:48.315Z,44.00
2019-01-24T22:42:20.037Z,35.55
2019-01-24T22:44:50.958Z,44.40
2019-01-24T22:47:21.677Z,33.70
2019-01-24T22:49:52.580Z,24.32
2019-01-24T22:52:23.636Z,25.60
2019-01-24T22:54:54.546Z,21.95
2019-01-24T22:57:25.318Z,22.58
2019-01-24T22:59:56.127Z,28.00
2019-01-24T23:02:29.783Z,27.50
2019-01-24T23:05:00.566Z,32.40
2019-01-24T23:07:31.299Z,36.10
2019-01-24T23:10:02.101Z,32.65
2019-01-24T23:12:33.968Z,29.30
2019-01-24T23:15:05.930Z,35.17
2019-01-24T23:17:36.694Z,39.78
2019-01-24T23:20:08.521Z,42.48
2019-01-24T23:22:39.282Z,43.63
2019-01-24T23:25:10.320Z,29.07
2019-01-24T23:27:41.107Z,23.90
2019-01-24T23:30:12.133Z,21.52
2019-01-24T23:32:42.956Z,20.82
2019-01-24T23:35:13.858Z,24.92
2019-01-24T23:37:44.554Z,22.48
2019-01-24T23:40:15.734Z,23.15
2019-01-24T23:42:46.473Z,24.07
2019-01-24T23:45:17.259Z,21.95
2019-01-24T23:47:48.007Z,22.45
2019-01-24T23:50:18.757Z,21.65
2019-01-24T23:52:49.486Z,21.48
2019-01-24T23:55:20.318Z,21.10
2019-01-24T23:57:51.060Z,21.33
